首页
METAR-TAF:

METAR-TAF

机场 :

芹苴國際機場

芹苴市, 越南

纬度: 10-05-07N, 经度: 105-42-43E, 海拔: 3米

当前天气观测

该预报发布于44分钟前的12:30 UTC
风速6节,风向西南
温度 28°C
湿度 89%
气压 1008 hPa
能见度10公里或以上
少量云层高于1500英尺
散云层高于5000英尺

METAR: VVCT 171230Z 22006KT 9999 FEW015 SCT050 28/26 Q1008 NOSIG

时间: 20:14 (13:14 UTC)

预报

该预报发布于2小时和14分钟前的11:00 UTC
预报有效从17日的 12点(UTC)到 18日的 12点(UTC)
风速8节,风向西转西南
能见度10公里或以上
散云层高于1500英尺
散云层高于4000英尺
短暂存在
从 18日的 06点(UTC)到 18日的 10点(UTC)
能見度: 5000
散云层高于1500英尺
少量云层高于1700英尺, 积雨云.
多云层高于4000英尺
雷暴, 雨,

TAF: VVCT 171100Z 1712/1812 25008KT 9999 SCT015 SCT040 TEMPO 1806/1810 5000 TSRA SCT015 FEW017CB BKN040

超过4000个机场的气象观测和天气预报(METAR&TAF报告)。

可查询的气象台以黄色和红色小点在地图上表示。

将鼠标移到小点上方,可查看气象台名称。

然后点击查看天气观测和预报。

如需切换地图:点击带黑十字的绿色按钮放大地图;点击带横线的绿色按钮缩小地图;或者点击绿色箭头查看邻近地区的地图。


METAR-TAF: